createdAt,value
2023-04-11T00:00:24.452Z,94281.25
2023-04-11T00:02:52.417Z,94282.84
2023-04-11T00:05:19.288Z,94283.16
2023-04-11T00:07:46.126Z,94269.44
2023-04-11T00:10:13.008Z,94258.19
2023-04-11T00:12:39.818Z,94263.06
2023-04-11T00:15:08.191Z,94263.44
2023-04-11T00:17:37.877Z,94249.50
2023-04-11T00:20:07.891Z,94248.38
2023-04-11T00:22:39.072Z,94244.53
2023-04-11T00:25:06.798Z,94249.31
2023-04-11T00:27:33.444Z,94248.53
2023-04-11T00:30:00.232Z,94247.69
2023-04-11T00:32:27.226Z,94240.66
2023-04-11T00:34:54.056Z,94252.16
2023-04-11T00:37:21.657Z,94248.69
2023-04-11T00:39:53.161Z,94243.56
2023-04-11T00:42:20.108Z,94241.03
2023-04-11T00:44:47.069Z,94234.59
2023-04-11T00:47:14.048Z,94232.69
2023-04-11T00:49:41.222Z,94238.75
2023-04-11T00:52:08.496Z,94223.41
2023-04-11T00:54:35.368Z,94223.56
2023-04-11T00:57:04.315Z,94225.06
2023-04-11T00:59:32.128Z,94226.66
2023-04-11T01:02:00.061Z,94220.84
2023-04-11T01:04:27.070Z,94219.25
2023-04-11T01:06:57.129Z,94221.63
2023-04-11T01:09:26.235Z,94223.06
2023-04-11T01:11:53.368Z,94219.53
2023-04-11T01:14:20.860Z,94221.94
2023-04-11T01:16:48.628Z,94218.28
2023-04-11T01:19:20.069Z,94211.28
2023-04-11T01:21:51.071Z,94214.50
2023-04-11T01:24:18.310Z,94212.88
2023-04-11T01:26:45.223Z,94209.34
2023-04-11T01:29:11.954Z,94215.88
2023-04-11T01:31:38.733Z,94206.31
2023-04-11T01:34:05.765Z,94201.34
2023-04-11T01:36:32.846Z,94204.56
2023-04-11T01:38:59.822Z,94199.50
2023-04-11T01:41:27.219Z,94202.38
2023-04-11T01:43:54.377Z,94194.59
2023-04-11T01:46:22.000Z,94179.34
2023-04-11T01:48:50.675Z,94170.84
2023-04-11T01:51:17.422Z,94172.44
2023-04-11T01:53:47.382Z,94164.59
2023-04-11T01:56:14.947Z,94162.63
2023-04-11T01:58:41.744Z,94161.06
2023-04-11T02:01:08.545Z,94157.19
2023-04-11T02:03:37.139Z,94151.91
2023-04-11T02:06:04.192Z,94154.50
2023-04-11T02:08:31.192Z,94158.84
2023-04-11T02:10:57.850Z,94153.06
2023-04-11T02:13:24.674Z,94150.84
2023-04-11T02:15:51.388Z,94143.81
2023-04-11T02:18:18.130Z,94150.53
2023-04-11T02:20:44.833Z,94125.19
2023-04-11T02:23:12.918Z,94142.56
2023-04-11T02:25:39.703Z,94134.09
2023-04-11T02:28:08.126Z,94127.81
2023-04-11T02:30:35.104Z,94125.56
2023-04-11T02:33:02.169Z,94124.25
2023-04-11T02:35:28.863Z,94115.00
2023-04-11T02:37:55.617Z,94110.72
2023-04-11T02:40:22.414Z,94111.03
2023-04-11T02:42:49.129Z,94116.41
2023-04-11T02:45:16.096Z,94081.44
2023-04-11T02:47:42.913Z,94113.19
2023-04-11T02:50:10.175Z,94114.44
2023-04-11T02:52:39.440Z,94116.59
2023-04-11T02:55:06.425Z,94119.28
2023-04-11T02:57:33.095Z,94116.19
2023-04-11T02:59:59.825Z,94126.13
2023-04-11T03:02:26.756Z,94130.41
2023-04-11T03:04:53.607Z,94124.50
2023-04-11T03:07:20.336Z,94123.88
2023-04-11T03:09:47.147Z,94127.56
2023-04-11T03:12:13.835Z,94118.09
2023-04-11T03:14:40.649Z,94091.28
2023-04-11T03:17:07.358Z,94105.63
2023-04-11T03:19:34.125Z,94110.09
2023-04-11T03:22:01.739Z,94110.75
2023-04-11T03:24:28.469Z,94102.44
2023-04-11T03:26:55.184Z,94106.41
2023-04-11T03:29:21.925Z,94090.13
2023-04-11T03:31:48.869Z,94090.81
2023-04-11T03:34:16.217Z,94082.50
2023-04-11T03:36:42.948Z,94077.28
2023-04-11T03:39:10.061Z,94083.38
2023-04-11T03:41:36.827Z,94079.44
2023-04-11T03:44:03.676Z,94079.91
2023-04-11T03:46:30.590Z,94076.38
2023-04-11T03:48:57.669Z,94054.56
2023-04-11T03:51:24.580Z,94060.31
2023-04-11T03:53:52.762Z,94059.06
2023-04-11T03:56:19.556Z,94045.25
2023-04-11T03:58:46.318Z,94052.38
2023-04-11T04:01:13.064Z,94051.88
2023-04-11T04:03:40.118Z,94051.50
2023-04-11T04:06:07.256Z,94048.78
2023-04-11T04:08:34.094Z,94051.59
2023-04-11T04:11:00.759Z,94052.38
2023-04-11T04:13:27.689Z,94044.91
2023-04-11T04:15:54.578Z,94043.50
2023-04-11T04:18:21.285Z,94043.41
2023-04-11T04:20:48.017Z,94042.06
2023-04-11T04:23:18.041Z,94048.97
2023-04-11T04:25:48.384Z,94055.03
2023-04-11T04:28:17.919Z,94047.31
2023-04-11T04:30:50.064Z,94044.94
2023-04-11T04:33:18.908Z,94048.63
2023-04-11T04:35:45.679Z,94040.44
2023-04-11T04:38:17.821Z,94045.22
2023-04-11T04:40:44.829Z,94036.88
2023-04-11T04:43:18.557Z,94028.44
2023-04-11T04:45:45.910Z,94013.56
2023-04-11T04:48:15.702Z,94023.06
2023-04-11T04:50:42.413Z,94011.22
2023-04-11T04:53:09.157Z,94015.03
2023-04-11T04:55:35.870Z,94022.97
2023-04-11T04:58:02.710Z,94017.84
2023-04-11T05:00:29.420Z,94011.59
2023-04-11T05:02:56.356Z,94014.53
2023-04-11T05:05:23.291Z,94015.22
2023-04-11T05:07:50.245Z,94012.09
2023-04-11T05:10:16.867Z,94013.28
2023-04-11T05:12:43.603Z,94012.63
2023-04-11T05:15:11.835Z,94013.50
2023-04-11T05:17:38.878Z,94022.97
2023-04-11T05:20:07.942Z,94010.03
2023-04-11T05:22:34.899Z,94005.63
2023-04-11T05:25:02.578Z,94011.78
2023-04-11T05:27:29.371Z,94015.06
2023-04-11T05:29:56.072Z,94015.06
2023-04-11T05:32:22.932Z,94010.03
2023-04-11T05:34:55.970Z,94016.94
2023-04-11T05:37:25.091Z,94006.84
2023-04-11T05:39:52.666Z,93999.97
2023-04-11T05:42:19.474Z,93989.38
2023-04-11T05:44:46.164Z,93987.53
2023-04-11T05:47:13.055Z,93994.50
2023-04-11T05:49:39.829Z,94001.06
2023-04-11T05:52:06.575Z,93997.06
2023-04-11T05:54:34.903Z,93990.44
2023-04-11T05:57:02.379Z,93986.91
2023-04-11T05:59:32.719Z,93986.81
2023-04-11T06:01:59.710Z,93983.72
2023-04-11T06:04:26.945Z,93988.31
2023-04-11T06:06:54.291Z,93976.66
2023-04-11T06:09:21.001Z,93973.09
2023-04-11T06:11:47.816Z,93974.94
2023-04-11T06:14:14.570Z,93977.09
2023-04-11T06:16:41.437Z,93975.06
2023-04-11T06:19:08.229Z,93979.28
2023-04-11T06:21:34.998Z,93989.66
2023-04-11T06:24:05.499Z,93990.72
2023-04-11T06:26:32.271Z,93987.81
2023-04-11T06:28:58.975Z,93988.22
2023-04-11T06:31:26.313Z,93984.06
2023-04-11T06:33:53.271Z,93973.00
2023-04-11T06:36:20.032Z,93972.31
2023-04-11T06:38:46.753Z,93972.22
2023-04-11T06:41:13.491Z,93981.13
2023-04-11T06:43:40.492Z,93975.09
2023-04-11T06:46:08.457Z,93964.13
2023-04-11T06:48:35.433Z,93967.69
2023-04-11T06:51:02.214Z,93957.44
2023-04-11T06:53:28.941Z,93969.50
2023-04-11T06:55:55.805Z,93961.28
2023-04-11T06:58:22.655Z,93959.78
2023-04-11T07:00:49.416Z,93960.66
2023-04-11T07:03:16.248Z,93954.78
2023-04-11T07:05:43.262Z,93956.09
2023-04-11T07:08:10.182Z,93935.53
2023-04-11T07:10:36.855Z,93942.59
2023-04-11T07:13:03.594Z,93932.25
2023-04-11T07:15:30.312Z,93932.78
2023-04-11T07:17:56.998Z,93930.91
2023-04-11T07:20:23.760Z,93923.50
2023-04-11T07:22:50.559Z,93921.63
2023-04-11T07:25:17.312Z,93913.53
2023-04-11T07:27:46.580Z,93910.53
2023-04-11T07:30:13.839Z,93909.56
2023-04-11T07:32:40.680Z,93897.16
2023-04-11T07:35:08.170Z,93905.06
2023-04-11T07:37:35.730Z,93892.53
2023-04-11T07:40:06.408Z,93882.63
2023-04-11T07:42:33.213Z,93879.53
2023-04-11T07:44:59.892Z,93886.16
2023-04-11T07:47:26.684Z,93890.66
2023-04-11T07:49:53.461Z,93884.97
2023-04-11T07:52:20.203Z,93873.72
2023-04-11T07:54:46.888Z,93900.28
2023-04-11T07:57:13.640Z,93900.34
2023-04-11T07:59:40.328Z,93899.63
2023-04-11T08:02:08.292Z,93916.06
2023-04-11T08:04:37.180Z,93920.88
2023-04-11T08:07:04.243Z,93924.19
2023-04-11T08:09:30.907Z,93921.50
2023-04-11T08:11:58.305Z,93919.13
2023-04-11T08:14:25.053Z,93923.69
2023-04-11T08:16:53.161Z,93908.91
2023-04-11T08:19:20.200Z,93915.66
2023-04-11T08:21:47.006Z,93905.16
2023-04-11T08:24:13.718Z,93906.03
2023-04-11T08:26:40.484Z,93895.19
2023-04-11T08:29:11.377Z,93894.75
2023-04-11T08:31:45.547Z,93890.81
2023-04-11T08:34:12.681Z,93884.53
2023-04-11T08:36:39.441Z,93890.06
2023-04-11T08:39:06.818Z,93882.34
2023-04-11T08:41:33.802Z,93888.31
2023-04-11T08:44:00.843Z,93894.66
2023-04-11T08:46:28.378Z,93886.88
2023-04-11T08:48:55.209Z,93884.13
2023-04-11T08:51:27.054Z,93890.69
2023-04-11T08:53:54.712Z,93880.78
2023-04-11T08:56:21.660Z,93871.88
2023-04-11T08:58:48.570Z,93860.59
2023-04-11T09:01:28.952Z,93856.84
2023-04-11T09:03:56.936Z,93847.47
2023-04-11T09:06:24.098Z,93858.41
2023-04-11T09:08:51.028Z,93839.34
2023-04-11T09:11:18.760Z,93841.34
2023-04-11T09:13:45.563Z,93846.50
2023-04-11T09:16:13.905Z,93826.19
2023-04-11T09:18:45.128Z,93835.28
2023-04-11T09:21:15.865Z,93829.09
2023-04-11T09:23:43.061Z,93822.59
2023-04-11T09:26:11.918Z,93820.22
2023-04-11T09:28:52.542Z,93829.75
2023-04-11T09:31:20.164Z,93827.56
2023-04-11T09:33:54.940Z,93820.81
2023-04-11T09:36:23.993Z,93820.22
2023-04-11T09:38:51.556Z,93812.50
2023-04-11T09:41:33.188Z,93767.34
2023-04-11T09:44:00.976Z,93799.47
2023-04-11T09:46:28.087Z,93800.69
2023-04-11T09:48:55.352Z,93794.13
2023-04-11T09:53:52.804Z,93788.47
2023-04-11T09:56:20.078Z,93784.34
2023-04-11T09:58:47.809Z,93783.81
2023-04-11T10:01:15.951Z,93783.13
2023-04-11T10:03:43.046Z,93787.22
2023-04-11T10:06:14.272Z,93770.50
2023-04-11T10:08:41.952Z,93762.75
2023-04-11T10:11:09.823Z,93749.16
2023-04-11T10:13:47.404Z,93751.63
2023-04-11T10:16:15.927Z,93751.81
2023-04-11T10:18:54.922Z,93745.75
2023-04-11T10:21:27.738Z,93751.38
2023-04-11T10:24:16.684Z,93772.31
2023-04-11T10:27:00.462Z,93767.66
2023-04-11T10:29:40.969Z,93771.38
2023-04-11T10:32:22.565Z,93766.78
2023-04-11T10:34:52.281Z,93765.78
2023-04-11T10:37:21.578Z,93777.13
2023-04-11T10:39:48.244Z,93766.50
2023-04-11T10:42:31.725Z,93758.81
2023-04-11T10:45:39.876Z,93756.56
2023-04-11T10:48:10.614Z,93757.06
2023-04-11T10:50:40.998Z,93751.78
2023-04-11T10:53:11.224Z,93749.75
2023-04-11T10:55:48.805Z,93747.91
2023-04-11T10:58:17.228Z,93754.47
2023-04-11T11:00:46.812Z,93753.44
2023-04-11T11:03:25.654Z,93758.28
2023-04-11T11:05:59.551Z,93758.88
2023-04-11T11:08:33.762Z,93762.81
2023-04-11T11:11:02.005Z,93757.97
2023-04-11T11:13:45.689Z,93761.63
2023-04-11T11:16:17.378Z,93756.09
2023-04-11T11:18:52.877Z,93750.31
2023-04-11T11:21:27.631Z,93757.53
2023-04-11T11:24:00.265Z,93747.25
2023-04-11T11:26:57.481Z,93755.91
2023-04-11T11:29:35.795Z,93759.56
2023-04-11T11:32:06.012Z,93763.50
2023-04-11T11:34:34.485Z,93754.28
2023-04-11T11:37:04.762Z,93758.81
2023-04-11T11:39:32.424Z,93760.47
2023-04-11T11:41:59.382Z,93762.50
2023-04-11T11:44:30.933Z,93765.78
2023-04-11T11:47:09.238Z,93760.16
2023-04-11T11:49:50.147Z,93762.31
2023-04-11T11:52:36.237Z,93759.94
2023-04-11T11:55:11.442Z,93762.84
2023-04-11T11:57:44.710Z,93758.47
2023-04-11T12:00:12.188Z,93757.13
2023-04-11T12:02:40.159Z,93767.50
2023-04-11T12:05:07.629Z,93767.41
2023-04-11T12:07:37.383Z,93767.75
2023-04-11T12:10:09.369Z,93761.72
2023-04-11T12:12:41.171Z,93762.41
2023-04-11T12:15:12.339Z,93769.53
2023-04-11T12:17:39.769Z,93769.88
2023-04-11T12:20:10.828Z,93779.13
2023-04-11T12:22:38.389Z,93774.06
2023-04-11T12:25:13.061Z,93769.88
2023-04-11T12:27:42.358Z,93771.28
2023-04-11T12:30:11.059Z,93776.16
2023-04-11T12:32:38.137Z,93771.06
2023-04-11T12:35:06.385Z,93770.41
2023-04-11T12:37:33.800Z,93768.81
2023-04-11T12:40:00.969Z,93781.47
2023-04-11T12:42:27.843Z,93782.47
2023-04-11T12:44:54.732Z,93794.34
2023-04-11T12:47:21.516Z,93800.03
2023-04-11T12:49:48.308Z,93805.09
2023-04-11T12:52:15.001Z,93800.50
2023-04-11T12:54:41.723Z,93799.78
2023-04-11T12:57:08.522Z,93811.09
2023-04-11T12:59:35.211Z,93807.47
2023-04-11T13:02:02.473Z,93816.03
2023-04-11T13:04:29.355Z,93816.34
2023-04-11T13:07:00.926Z,93825.63
2023-04-11T13:09:34.515Z,93835.75
2023-04-11T13:12:04.327Z,93828.09
2023-04-11T13:14:31.193Z,93829.31
2023-04-11T13:16:57.941Z,93837.88
2023-04-11T13:19:24.867Z,93845.06
2023-04-11T13:21:51.725Z,93843.38
2023-04-11T13:24:18.484Z,93848.72
2023-04-11T13:26:45.913Z,93846.38
2023-04-11T13:29:12.677Z,93858.19
2023-04-11T13:31:39.458Z,93854.72
2023-04-11T13:34:07.579Z,93864.41
2023-04-11T13:36:34.297Z,93853.94
2023-04-11T13:39:01.018Z,93865.63
2023-04-11T13:41:27.785Z,93873.56
2023-04-11T13:43:54.679Z,93864.09
2023-04-11T13:46:21.939Z,93869.78
2023-04-11T13:48:48.955Z,93879.53
2023-04-11T13:51:15.637Z,93871.63
2023-04-11T13:53:42.392Z,93885.63
2023-04-11T13:56:09.219Z,93892.75
2023-04-11T13:58:36.979Z,93891.50
2023-04-11T14:01:04.369Z,93914.16
2023-04-11T14:03:33.725Z,93920.94
2023-04-11T14:06:01.315Z,93923.63
2023-04-11T14:08:29.092Z,93931.88
2023-04-11T14:10:56.205Z,93928.78
2023-04-11T14:13:22.964Z,93934.47
2023-04-11T14:16:04.844Z,93936.63
2023-04-11T14:18:34.552Z,93958.28
2023-04-11T14:21:02.010Z,93962.22
2023-04-11T14:23:29.512Z,93967.69
2023-04-11T14:25:56.873Z,93967.56
2023-04-11T14:28:26.540Z,93981.09
2023-04-11T14:30:53.846Z,94004.69
2023-04-11T14:33:20.943Z,93999.34
2023-04-11T14:35:47.692Z,93997.47
2023-04-11T14:38:16.055Z,94002.56
2023-04-11T14:40:44.102Z,94007.16
2023-04-11T14:43:11.384Z,94002.91
2023-04-11T14:45:38.230Z,94006.56
2023-04-11T14:48:05.556Z,94005.56
2023-04-11T14:50:32.556Z,93999.63
2023-04-11T14:52:59.546Z,94008.28
2023-04-11T14:55:26.237Z,94003.31
2023-04-11T14:57:55.151Z,94002.69
2023-04-11T15:00:23.057Z,94014.59
2023-04-11T15:02:52.092Z,94022.63
2023-04-11T15:05:19.918Z,94007.22
2023-04-11T15:07:48.203Z,94014.00
2023-04-11T15:10:16.570Z,94010.53
2023-04-11T15:12:43.284Z,93975.06
2023-04-11T15:15:11.181Z,93994.16
2023-04-11T15:17:43.168Z,94003.75
2023-04-11T15:20:11.540Z,93990.09
2023-04-11T15:22:46.641Z,94009.00
2023-04-11T15:25:16.798Z,94004.63
2023-04-11T15:27:44.057Z,94005.50
2023-04-11T15:30:11.502Z,94001.00
2023-04-11T15:32:44.383Z,94001.34
2023-04-11T15:35:11.309Z,93999.16
2023-04-11T15:37:38.096Z,94015.75
2023-04-11T15:40:09.602Z,94010.81
2023-04-11T15:42:37.646Z,94002.72
2023-04-11T15:45:05.014Z,93996.66
2023-04-11T15:47:31.799Z,94006.94
2023-04-11T15:50:01.890Z,93994.47
2023-04-11T15:52:28.607Z,93996.63
2023-04-11T15:54:55.318Z,93998.25
2023-04-11T15:57:22.017Z,93993.19
2023-04-11T15:59:48.883Z,93992.41
2023-04-11T16:02:15.872Z,93991.19
2023-04-11T16:04:46.362Z,93993.63
2023-04-11T16:07:18.633Z,94001.19
2023-04-11T16:09:45.803Z,94008.38
2023-04-11T16:12:12.719Z,94007.03
2023-04-11T16:14:39.532Z,94010.75
2023-04-11T16:17:07.182Z,94006.28
2023-04-11T16:19:34.135Z,93998.47
2023-04-11T16:22:01.147Z,93992.56
2023-04-11T16:24:31.587Z,93976.94
2023-04-11T16:26:58.496Z,93982.09
2023-04-11T16:29:25.505Z,93977.31
2023-04-11T16:31:52.558Z,93975.66
2023-04-11T16:34:19.374Z,93971.69
2023-04-11T16:36:46.106Z,93961.84
2023-04-11T16:39:12.945Z,93970.56
2023-04-11T16:41:39.696Z,93966.31
2023-04-11T16:44:11.379Z,93967.03
2023-04-11T16:46:39.618Z,93970.38
2023-04-11T16:49:06.602Z,93958.34
2023-04-11T16:51:34.406Z,93965.19
2023-04-11T16:54:03.294Z,93968.44
2023-04-11T16:56:30.190Z,93966.22
2023-04-11T16:58:57.066Z,93960.25
2023-04-11T17:01:23.789Z,93966.94
2023-04-11T17:03:52.471Z,93965.28
2023-04-11T17:06:19.932Z,93957.78
2023-04-11T17:08:47.774Z,93941.63
2023-04-11T17:11:14.745Z,93961.44
2023-04-11T17:13:45.106Z,93957.47
2023-04-11T17:16:12.200Z,93951.09
2023-04-11T17:18:40.325Z,93934.78
2023-04-11T17:21:07.531Z,93941.56
2023-04-11T17:23:42.317Z,93941.72
2023-04-11T17:26:10.882Z,93943.84
2023-04-11T17:28:38.609Z,93939.84
2023-04-11T17:31:13.185Z,93941.94
2023-04-11T17:33:40.553Z,93933.97
2023-04-11T17:36:08.286Z,93941.59
2023-04-11T17:38:36.680Z,93943.66
2023-04-11T17:41:13.545Z,93943.88
2023-04-11T17:43:42.118Z,93927.34
2023-04-11T17:46:09.198Z,93931.78
2023-04-11T17:48:36.536Z,93943.44
2023-04-11T17:51:06.906Z,93943.50
2023-04-11T17:53:33.871Z,93958.50
2023-04-11T17:56:04.873Z,93956.13
2023-04-11T17:58:32.008Z,93946.25
2023-04-11T18:00:59.031Z,93937.72
2023-04-11T18:03:26.316Z,93935.13
2023-04-11T18:05:54.742Z,93936.56
2023-04-11T18:08:29.306Z,93930.69
2023-04-11T18:11:04.406Z,93941.28
2023-04-11T18:13:31.770Z,93952.47
2023-04-11T18:15:58.694Z,93946.94
2023-04-11T18:18:25.682Z,93958.41
2023-04-11T18:20:52.557Z,93971.75
2023-04-11T18:23:19.335Z,93977.66
2023-04-11T18:25:46.186Z,93973.88
2023-04-11T18:28:12.903Z,93989.34
2023-04-11T18:30:39.733Z,93995.44
2023-04-11T18:33:06.531Z,93981.59
2023-04-11T18:35:33.397Z,93995.63
2023-04-11T18:38:00.369Z,94001.78
2023-04-11T18:40:27.860Z,94002.75
2023-04-11T18:42:56.283Z,94002.53
2023-04-11T18:45:24.053Z,94000.72
2023-04-11T18:47:51.186Z,93989.56
2023-04-11T18:50:19.053Z,93987.41
2023-04-11T18:52:47.183Z,93994.22
2023-04-11T18:55:16.502Z,94001.34
2023-04-11T18:57:47.562Z,93997.41
2023-04-11T19:00:18.447Z,93994.63
2023-04-11T19:02:47.060Z,94001.63
2023-04-11T19:05:14.638Z,93998.44
2023-04-11T19:07:43.389Z,93977.44
2023-04-11T19:10:11.507Z,93987.75
2023-04-11T19:12:38.579Z,93994.09
2023-04-11T19:15:08.134Z,93989.72
2023-04-11T19:17:39.065Z,93988.34
2023-04-11T19:20:13.218Z,93990.94
2023-04-11T19:22:43.424Z,93984.00
2023-04-11T19:25:11.323Z,93989.34
2023-04-11T19:27:42.634Z,93993.09
2023-04-11T19:30:10.857Z,93988.13
2023-04-11T19:32:40.630Z,93980.22
2023-04-11T19:35:10.345Z,93980.63
2023-04-11T19:37:39.439Z,93967.16
2023-04-11T19:40:13.543Z,93964.97
2023-04-11T19:42:45.611Z,93964.19
2023-04-11T19:45:17.513Z,93954.84
2023-04-11T19:47:49.098Z,93964.94
2023-04-11T19:50:18.227Z,93951.22
2023-04-11T19:52:47.520Z,93971.34
2023-04-11T19:55:14.418Z,93968.34
2023-04-11T19:57:45.686Z,93979.84
2023-04-11T20:00:14.779Z,93984.63
2023-04-11T20:02:48.157Z,93979.88
2023-04-11T20:05:20.595Z,93969.94
2023-04-11T20:07:49.951Z,93969.34
2023-04-11T20:10:17.916Z,93967.56
2023-04-11T20:12:46.092Z,93966.19
2023-04-11T20:15:13.931Z,93970.75
2023-04-11T20:17:45.811Z,93970.75
2023-04-11T20:20:14.093Z,93973.91
2023-04-11T20:22:41.071Z,93979.88
2023-04-11T20:25:13.990Z,93972.13
2023-04-11T20:27:43.331Z,93968.75
2023-04-11T20:30:15.648Z,93973.50
2023-04-11T20:32:43.489Z,93961.59
2023-04-11T20:35:15.335Z,93959.38
2023-04-11T20:37:46.324Z,93971.69
2023-04-11T20:40:15.766Z,93971.69
2023-04-11T20:42:47.437Z,93965.88
2023-04-11T20:45:18.376Z,93975.19
2023-04-11T20:47:46.720Z,93975.00
2023-04-11T20:50:14.621Z,93962.28
2023-04-11T20:52:44.518Z,93972.81
2023-04-11T20:55:11.890Z,93965.06
2023-04-11T20:57:39.749Z,93966.84
2023-04-11T21:00:15.596Z,93974.75
2023-04-11T21:02:44.526Z,93974.94
2023-04-11T21:05:12.839Z,93957.47
2023-04-11T21:07:41.691Z,93945.72
2023-04-11T21:10:08.986Z,93961.25
2023-04-11T21:12:35.972Z,93966.38
2023-04-11T21:15:03.753Z,93958.03
2023-04-11T21:17:33.916Z,93966.94
2023-04-11T21:20:01.736Z,93953.50
2023-04-11T21:22:28.536Z,93961.75
2023-04-11T21:24:55.154Z,93952.66
2023-04-11T21:27:22.041Z,93951.41
2023-04-11T21:29:48.677Z,93955.81
2023-04-11T21:32:15.550Z,93954.59
2023-04-11T21:34:42.437Z,93960.97
2023-04-11T21:37:09.055Z,93955.06
2023-04-11T21:39:35.665Z,93954.63
2023-04-11T21:42:02.462Z,93950.69
2023-04-11T21:44:29.468Z,93952.84
2023-04-11T21:46:56.066Z,93953.66
2023-04-11T21:49:22.732Z,93947.91
2023-04-11T21:51:49.320Z,93951.22
2023-04-11T21:54:16.485Z,93950.00
2023-04-11T21:56:44.693Z,93947.44
2023-04-11T21:59:11.285Z,93947.44
2023-04-11T22:01:38.008Z,93950.38
2023-04-11T22:04:05.108Z,93953.19
2023-04-11T22:06:32.505Z,93956.75
2023-04-11T22:09:01.420Z,93950.19
2023-04-11T22:11:28.135Z,93955.72
2023-04-11T22:13:55.089Z,93956.75
2023-04-11T22:16:30.326Z,93958.47
2023-04-11T22:18:58.528Z,93959.25
2023-04-11T22:21:26.604Z,93956.22
2023-04-11T22:23:57.162Z,93945.13
2023-04-11T22:26:29.555Z,93955.47
2023-04-11T22:29:01.372Z,93947.53
2023-04-11T22:31:35.098Z,93941.59
2023-04-11T22:34:04.777Z,93942.19
2023-04-11T22:36:41.321Z,93938.81
2023-04-11T22:39:08.552Z,93922.19
2023-04-11T22:41:38.591Z,93922.44
2023-04-11T22:44:06.625Z,93926.38
2023-04-11T22:46:38.606Z,93922.00
2023-04-11T22:49:06.556Z,93911.66
2023-04-11T22:51:33.144Z,93909.94
2023-04-11T22:54:01.102Z,93903.38
2023-04-11T22:56:27.722Z,93906.09
2023-04-11T22:58:54.917Z,93903.88
2023-04-11T23:01:22.454Z,93907.66
2023-04-11T23:03:49.351Z,93900.50
2023-04-11T23:06:16.585Z,93903.47
2023-04-11T23:08:43.269Z,93891.53
2023-04-11T23:11:10.012Z,93890.13
2023-04-11T23:13:37.643Z,93883.56
2023-04-11T23:16:04.574Z,93881.38
2023-04-11T23:18:31.402Z,93873.78
2023-04-11T23:20:58.228Z,93883.16
2023-04-11T23:23:25.068Z,93876.28
2023-04-11T23:25:52.341Z,93872.66
2023-04-11T23:28:19.078Z,93874.63
2023-04-11T23:30:45.938Z,93869.84
2023-04-11T23:33:13.340Z,93863.53
2023-04-11T23:35:40.052Z,93869.72
2023-04-11T23:38:06.914Z,93866.28
2023-04-11T23:40:33.685Z,93859.38
2023-04-11T23:43:00.609Z,93862.00
2023-04-11T23:45:27.310Z,93845.47
2023-04-11T23:47:54.077Z,93849.16
2023-04-11T23:50:21.449Z,93840.56
2023-04-11T23:52:48.248Z,93844.75
2023-04-11T23:55:15.561Z,93845.13
2023-04-11T23:57:42.426Z,93838.50
